Time;durP1;ratioP1;P1;durP2;ratioP2;P2;SDS_P1;SDS_P2;PMS_P1;PMS_P2;Temp;Humidity;BMP_temperature;BMP_pressure;BME280_temperature;BME280_humidity;BME280_pressure;Samples;Min_cycle;Max_cycle;Signal;HPM_P1;HPM_P2
2022/05/27 00:02:21;;;;;;;3.65;1.00;;;17.60;65.50;;;;;;5073437;28;20044;-73
2022/05/27 00:04:48;;;;;;;4.93;1.20;;;17.60;65.60;;;;;;5077855;28;20400;-71
2022/05/27 00:07:15;;;;;;;5.68;1.20;;;17.60;65.70;;;;;;5077996;28;20044;-75
2022/05/27 00:09:42;;;;;;;5.15;1.70;;;17.60;65.70;;;;;;5079725;28;20051;-70
2022/05/27 00:12:10;;;;;;;3.55;1.05;;;17.50;65.90;;;;;;5078561;28;20551;-71
2022/05/27 00:14:37;;;;;;;1.55;0.73;;;17.60;66.00;;;;;;5080732;28;20117;-74
2022/05/27 00:17:05;;;;;;;2.53;0.80;;;17.50;66.10;;;;;;5076560;28;20083;-72
2022/05/27 00:19:32;;;;;;;3.70;1.65;;;17.40;66.30;;;;;;5076716;28;20147;-70
2022/05/27 00:21:59;;;;;;;4.47;1.02;;;17.40;66.30;;;;;;5077020;28;20500;-67
2022/05/27 00:24:27;;;;;;;4.05;1.50;;;17.40;66.50;;;;;;5079059;28;20058;-67
2022/05/27 00:26:54;;;;;;;4.07;1.05;;;17.40;66.60;;;;;;5078112;28;20403;-72
2022/05/27 00:29:21;;;;;;;2.78;1.20;;;17.40;66.70;;;;;;5078670;28;20051;-71
2022/05/27 00:31:48;;;;;;;7.88;1.25;;;17.30;66.80;;;;;;5078908;28;20067;-68
2022/05/27 00:34:16;;;;;;;2.33;0.85;;;17.30;66.80;;;;;;5079857;28;20086;-68
2022/05/27 00:36:43;;;;;;;7.70;1.55;;;17.30;66.90;;;;;;5081158;28;20499;-69
2022/05/27 00:39:10;;;;;;;1.98;1.00;;;17.30;67.10;;;;;;5078296;28;20070;-70
2022/05/27 00:41:37;;;;;;;4.43;1.10;;;17.20;67.20;;;;;;5079874;28;20080;-69
2022/05/27 00:44:05;;;;;;;4.13;0.98;;;17.30;67.30;;;;;;5073698;28;20127;-69
2022/05/27 00:46:33;;;;;;;4.07;1.27;;;17.20;67.30;;;;;;5073347;28;20064;-71
2022/05/27 00:49:05;;;;;;;3.28;1.17;;;17.30;67.40;;;;;;5076998;28;20036;-69
2022/05/27 00:51:38;;;;;;;4.28;1.27;;;17.20;67.40;;;;;;5076920;28;20075;-69
2022/05/27 00:54:10;;;;;;;6.13;1.42;;;17.20;67.50;;;;;;5076889;28;20514;-69
2022/05/27 00:56:40;;;;;;;4.32;1.45;;;17.20;67.60;;;;;;5077573;28;20408;-72
2022/05/27 00:59:12;;;;;;;;;;;17.10;67.70;;;;;;5080617;28;20587;-72
2022/05/27 01:01:40;;;;;;;2.75;1.00;;;17.20;67.80;;;;;;5064492;28;19920;-69
2022/05/27 01:04:09;;;;;;;4.80;1.20;;;17.20;67.90;;;;;;5079350;28;20499;-69
2022/05/27 01:06:38;;;;;;;1.77;0.80;;;17.20;68.00;;;;;;5073312;28;20068;-71
2022/05/27 01:09:05;;;;;;;2.38;1.20;;;17.10;68.10;;;;;;5069000;28;20169;-69
2022/05/27 01:11:47;;;;;;;3.92;1.08;;;17.10;68.10;;;;;;5062652;28;20041;-71
2022/05/27 01:14:24;;;;;;;2.85;0.90;;;17.10;68.10;;;;;;5071058;28;20512;-69
2022/05/27 01:16:58;;;;;;;2.30;0.82;;;17.10;68.20;;;;;;5070914;28;20044;-68
2022/05/27 01:22:51;;;;;;;3.45;1.10;;;17.10;68.40;;;;;;5073544;28;20970;-73
2022/05/27 01:26:03;;;;;;;2.53;1.00;;;17.10;68.40;;;;;;5075022;28;20055;-72
2022/05/27 01:28:51;;;;;;;3.42;1.00;;;17.10;68.40;;;;;;5074019;28;20072;-69
2022/05/27 01:31:32;;;;;;;3.17;1.10;;;17.00;68.60;;;;;;5072899;28;20040;-68
2022/05/27 01:34:08;;;;;;;2.72;1.10;;;17.00;68.70;;;;;;5066887;28;20036;-70
2022/05/27 01:36:45;;;;;;;4.70;1.30;;;17.00;68.70;;;;;;5064586;28;20132;-70
2022/05/27 01:39:20;;;;;;;4.53;0.98;;;17.00;68.80;;;;;;5062510;28;20032;-71
2022/05/27 01:41:57;;;;;;;3.25;1.10;;;16.90;69.00;;;;;;5051622;28;20047;-70
2022/05/27 01:44:29;;;;;;;4.25;1.13;;;17.00;69.00;;;;;;5060673;28;20212;-70
2022/05/27 01:46:58;;;;;;;3.15;0.93;;;17.00;69.00;;;;;;5066215;28;20117;-71
2022/05/27 01:49:33;;;;;;;2.80;1.15;;;17.00;69.10;;;;;;5074750;28;20162;-72
2022/05/27 01:52:07;;;;;;;2.38;1.20;;;17.00;69.20;;;;;;5069036;28;20075;-69
2022/05/27 01:54:56;;;;;;;5.22;1.35;;;17.00;69.20;;;;;;5053819;28;20059;-70
2022/05/27 01:57:28;;;;;;;3.83;1.08;;;17.00;69.30;;;;;;5066777;28;20131;-72
2022/05/27 02:00:04;;;;;;;1.27;0.93;;;17.00;69.30;;;;;;5070423;28;20069;-68
2022/05/27 02:02:38;;;;;;;4.00;0.85;;;17.00;69.30;;;;;;5065692;28;20367;-70
2022/05/27 02:05:09;;;;;;;5.60;0.98;;;17.00;69.30;;;;;;5070405;28;20044;-70
2022/05/27 02:07:40;;;;;;;3.65;0.98;;;17.00;69.30;;;;;;5066270;28;20395;-71
2022/05/27 02:10:13;;;;;;;4.28;1.00;;;17.00;69.50;;;;;;5066554;28;20110;-68
2022/05/27 02:12:45;;;;;;;5.10;0.85;;;17.00;69.50;;;;;;5062238;28;20040;-69
2022/05/27 02:15:16;;;;;;;7.28;1.23;;;17.00;69.60;;;;;;5073382;28;20036;-70
2022/05/27 02:17:51;;;;;;;1.48;1.05;;;17.00;69.70;;;;;;5068991;28;20037;-72
2022/05/27 02:20:23;;;;;;;1.83;0.85;;;17.00;69.80;;;;;;5071312;28;20132;-70
2022/05/27 02:22:55;;;;;;;6.53;1.52;;;16.90;69.90;;;;;;5068471;28;20048;-69
2022/05/27 02:25:27;;;;;;;3.03;1.27;;;17.00;70.10;;;;;;5068732;28;20136;-70
2022/05/27 02:27:58;;;;;;;2.17;0.70;;;16.90;70.10;;;;;;5072786;28;20036;-69
2022/05/27 02:30:30;;;;;;;3.10;0.98;;;16.90;70.10;;;;;;5072807;28;20479;-68
2022/05/27 02:35:50;;;;;;;3.25;0.93;;;16.90;70.20;;;;;;5069232;28;20041;-70
2022/05/27 02:38:18;;;;;;;1.98;0.88;;;16.90;70.30;;;;;;5080498;28;20132;-70
2022/05/27 02:40:54;;;;;;;4.38;1.38;;;16.90;70.20;;;;;;5077114;28;20040;-69
2022/05/27 02:43:29;;;;;;;2.78;0.90;;;16.90;70.30;;;;;;5081552;28;20458;-70
2022/05/27 02:46:10;;;;;;;4.82;0.88;;;16.90;70.30;;;;;;5074175;28;20048;-71
2022/05/27 02:48:44;;;;;;;1.90;0.88;;;16.90;70.30;;;;;;5071537;28;20494;-72
2022/05/27 02:51:20;;;;;;;3.03;1.00;;;17.00;70.30;;;;;;5071731;28;20043;-69
2022/05/27 02:53:55;;;;;;;3.20;0.95;;;17.00;70.20;;;;;;5074917;28;20048;-70
2022/05/27 02:56:26;;;;;;;2.35;0.70;;;17.00;70.10;;;;;;5073696;28;20044;-69
2022/05/27 02:58:54;;;;;;;3.10;0.90;;;17.00;70.10;;;;;;5081486;28;20032;-69
2022/05/27 03:01:21;;;;;;;2.67;0.80;;;17.10;70.00;;;;;;5071655;28;20487;-73
2022/05/27 03:03:51;;;;;;;3.58;1.45;;;17.10;70.00;;;;;;5069826;28;20575;-73
2022/05/27 03:06:36;;;;;;;3.00;0.70;;;17.10;70.20;;;;;;5072282;28;20048;-71
2022/05/27 03:09:07;;;;;;;4.63;1.10;;;17.10;70.10;;;;;;5071407;28;20040;-70
2022/05/27 03:11:50;;;;;;;2.55;1.13;;;17.10;70.10;;;;;;5072366;28;20045;-70
2022/05/27 03:14:55;;;;;;;2.55;1.00;;;17.10;70.30;;;;;;5069025;28;20048;-73
2022/05/27 03:17:42;;;;;;;4.53;1.00;;;17.00;70.40;;;;;;5080880;28;20032;-71
2022/05/27 03:20:28;;;;;;;2.65;0.90;;;17.00;70.50;;;;;;5080114;28;20554;-72
2022/05/27 03:23:12;;;;;;;3.90;0.90;;;17.10;70.30;;;;;;5074089;28;20041;-70
2022/05/27 03:25:43;;;;;;;3.47;0.98;;;17.10;70.30;;;;;;5073000;28;20137;-70
2022/05/27 03:28:17;;;;;;;2.90;0.93;;;17.10;70.40;;;;;;5070216;28;20444;-70
2022/05/27 03:30:52;;;;;;;2.40;0.70;;;17.00;70.50;;;;;;5070239;28;20090;-68
2022/05/27 03:33:24;;;;;;;3.40;0.77;;;17.10;70.40;;;;;;5069753;28;20263;-71
2022/05/27 03:35:57;;;;;;;2.85;1.00;;;17.10;70.50;;;;;;5075163;28;20076;-70
2022/05/27 03:38:31;;;;;;;2.75;0.98;;;17.10;70.40;;;;;;5072209;28;20099;-72
2022/05/27 03:41:05;;;;;;;4.72;1.02;;;17.10;70.40;;;;;;5068620;28;20074;-69
2022/05/27 03:43:34;;;;;;;3.28;1.20;;;17.10;70.40;;;;;;5066009;28;20053;-70
2022/05/27 03:46:03;;;;;;;4.32;0.93;;;17.10;70.40;;;;;;5073430;28;20048;-69
2022/05/27 03:48:32;;;;;;;3.05;1.30;;;17.10;70.40;;;;;;5068605;28;20040;-69
2022/05/27 03:51:05;;;;;;;2.10;1.10;;;17.10;70.50;;;;;;5083624;28;20107;-69
2022/05/27 03:56:17;;;;;;;3.03;1.00;;;17.10;70.40;;;;;;5073930;28;20484;-69
2022/05/27 03:58:44;;;;;;;2.33;0.93;;;17.20;70.40;;;;;;5076363;28;20044;-71
2022/05/27 04:01:11;;;;;;;3.22;0.80;;;17.10;70.40;;;;;;5074978;28;20052;-69
2022/05/27 04:03:38;;;;;;;3.03;0.70;;;17.20;70.20;;;;;;5079095;28;20055;-70
2022/05/27 04:06:06;;;;;;;3.58;0.98;;;17.20;70.00;;;;;;5080099;28;20491;-68
2022/05/27 04:08:36;;;;;;;5.38;0.98;;;17.20;70.00;;;;;;5078581;28;20040;-68
2022/05/27 04:11:03;;;;;;;3.38;0.88;;;17.20;70.30;;;;;;5080329;28;20045;-72
2022/05/27 04:13:31;;;;;;;2.53;1.08;;;17.20;70.40;;;;;;5073706;28;20508;-70
2022/05/27 04:15:58;;;;;;;4.57;1.05;;;17.10;70.60;;;;;;5077912;28;20074;-68
2022/05/27 04:18:25;;;;;;;4.47;1.05;;;17.10;70.70;;;;;;5070933;28;20586;-69
2022/05/27 04:20:52;;;;;;;1.88;1.20;;;17.10;70.60;;;;;;5072834;28;20578;-71
2022/05/27 04:23:21;;;;;;;3.88;1.10;;;17.10;70.70;;;;;;5068793;28;20131;-73
2022/05/27 04:25:48;;;;;;;1.73;0.68;;;17.10;70.90;;;;;;5071904;28;20248;-69
2022/05/27 04:28:15;;;;;;;3.83;0.95;;;17.10;71.00;;;;;;5071171;28;20048;-72
2022/05/27 04:30:44;;;;;;;3.92;1.00;;;17.00;71.00;;;;;;5074910;28;20510;-70
2022/05/27 04:33:11;;;;;;;2.72;1.15;;;17.00;71.20;;;;;;5070835;28;20051;-70
2022/05/27 04:35:38;;;;;;;8.45;1.33;;;17.00;71.30;;;;;;5071055;28;20122;-72
2022/05/27 04:38:06;;;;;;;3.55;1.10;;;17.00;71.30;;;;;;5070558;28;20137;-70
2022/05/27 04:40:34;;;;;;;2.53;0.82;;;17.00;71.40;;;;;;5067928;28;20045;-69
2022/05/27 04:43:02;;;;;;;3.35;1.50;;;16.90;71.50;;;;;;5070016;28;20067;-68
2022/05/27 04:45:30;;;;;;;2.90;1.30;;;16.90;71.60;;;;;;5069206;28;20048;-69
2022/05/27 04:47:57;;;;;;;2.53;1.10;;;16.90;71.70;;;;;;5071388;28;20098;-70
2022/05/27 04:50:25;;;;;;;2.65;1.20;;;16.90;71.70;;;;;;5070107;28;20076;-69
2022/05/27 04:52:52;;;;;;;2.05;1.08;;;16.90;71.80;;;;;;5067021;28;20082;-70
2022/05/27 04:55:19;;;;;;;3.03;1.00;;;16.90;71.90;;;;;;5072618;28;20101;-69
2022/05/27 04:57:51;;;;;;;2.60;0.80;;;16.90;72.00;;;;;;5068077;28;20042;-71
2022/05/27 05:00:20;;;;;;;3.22;0.93;;;16.90;72.00;;;;;;5066056;28;20037;-69
2022/05/27 05:02:48;;;;;;;2.97;1.30;;;16.90;72.20;;;;;;5066749;28;20446;-69
2022/05/27 05:05:18;;;;;;;4.32;1.10;;;16.90;72.20;;;;;;5070660;28;20140;-68
2022/05/27 05:07:47;;;;;;;;;;;16.90;72.30;;;;;;5069360;28;20045;-68
2022/05/27 05:10:17;;;;;;;3.70;1.42;;;16.90;72.30;;;;;;5063775;28;19924;-69
2022/05/27 05:12:44;;;;;;;2.45;0.90;;;16.90;72.30;;;;;;5066066;28;20048;-70
2022/05/27 05:15:13;;;;;;;1.40;0.85;;;16.90;72.30;;;;;;5073294;28;20048;-69
2022/05/27 05:17:41;;;;;;;2.33;0.90;;;16.90;72.30;;;;;;5076082;28;20396;-69
2022/05/27 05:20:11;;;;;;;4.53;1.17;;;16.90;72.30;;;;;;5074088;28;20657;-70
2022/05/27 05:22:38;;;;;;;4.32;1.02;;;16.90;72.30;;;;;;5071783;28;20044;-71
2022/05/27 05:25:06;;;;;;;4.80;1.35;;;16.90;72.40;;;;;;5073274;28;20048;-68
2022/05/27 05:27:34;;;;;;;2.47;1.00;;;16.90;72.30;;;;;;5077353;28;20055;-69
2022/05/27 05:30:01;;;;;;;1.80;1.00;;;16.90;72.40;;;;;;5074430;28;20025;-71
2022/05/27 05:32:30;;;;;;;1.60;0.93;;;16.90;72.50;;;;;;5076564;28;20040;-68
2022/05/27 05:34:58;;;;;;;2.28;0.95;;;16.90;72.60;;;;;;5077394;28;20055;-70
2022/05/27 05:37:25;;;;;;;4.68;1.20;;;16.90;72.60;;;;;;5077190;28;20083;-71
2022/05/27 05:39:52;;;;;;;3.33;1.15;;;17.00;72.50;;;;;;5076510;28;20036;-70
2022/05/27 05:42:20;;;;;;;2.75;1.20;;;17.00;72.50;;;;;;5077909;28;20516;-70
2022/05/27 05:44:47;;;;;;;3.05;1.40;;;16.90;72.60;;;;;;5075748;28;20051;-71
2022/05/27 05:47:14;;;;;;;2.72;0.90;;;17.00;72.60;;;;;;5078413;28;20036;-70
2022/05/27 05:49:42;;;;;;;4.97;1.75;;;17.00;72.60;;;;;;5074832;28;20127;-70
2022/05/27 05:52:09;;;;;;;2.88;1.25;;;17.00;72.60;;;;;;5074803;28;20079;-70
2022/05/27 05:54:36;;;;;;;5.10;1.25;;;17.00;72.50;;;;;;5075027;28;20456;-69
2022/05/27 05:57:05;;;;;;;3.08;1.38;;;17.00;72.30;;;;;;5075365;28;20050;-69
2022/05/27 05:59:33;;;;;;;3.60;1.13;;;17.10;72.40;;;;;;5076041;28;20576;-70
2022/05/27 06:02:01;;;;;;;3.42;1.00;;;17.10;72.40;;;;;;5071721;28;20524;-73
2022/05/27 06:04:28;;;;;;;9.00;1.20;;;17.10;72.50;;;;;;5075446;28;20044;-71
2022/05/27 06:06:57;;;;;;;4.80;1.30;;;17.00;72.50;;;;;;5056631;28;20039;-72
2022/05/27 06:09:26;;;;;;;2.75;1.00;;;17.10;72.50;;;;;;5076187;28;20517;-68
2022/05/27 06:11:53;;;;;;;2.05;1.05;;;17.10;72.60;;;;;;5073087;28;20048;-71
2022/05/27 06:14:21;;;;;;;1.92;1.00;;;17.00;72.80;;;;;;5073331;28;20047;-70
2022/05/27 06:16:48;;;;;;;3.05;1.30;;;17.00;72.70;;;;;;5073176;28;20064;-71
2022/05/27 06:19:15;;;;;;;2.13;1.13;;;17.10;72.70;;;;;;5070222;28;20051;-71
2022/05/27 06:21:43;;;;;;;3.25;1.15;;;17.00;72.90;;;;;;5073495;28;20410;-70
2022/05/27 06:24:11;;;;;;;3.08;1.20;;;17.00;72.80;;;;;;5071436;28;20040;-74
2022/05/27 06:26:39;;;;;;;4.95;1.45;;;17.00;72.90;;;;;;5078042;28;20048;-68
2022/05/27 06:34:35;;;;;;;4.00;1.17;;;17.00;72.80;;;;;;5071502;28;20037;-71
2022/05/27 06:37:06;;;;;;;3.47;1.17;;;17.10;72.70;;;;;;5063493;28;20496;-70
2022/05/27 06:39:37;;;;;;;4.35;1.38;;;17.10;72.80;;;;;;5065595;28;20056;-70
2022/05/27 06:42:05;;;;;;;;;;;17.10;72.80;;;;;;5069481;28;20070;-69
2022/05/27 06:44:32;;;;;;;3.58;1.10;;;17.10;72.90;;;;;;5065482;28;19920;-69
2022/05/27 06:46:59;;;;;;;3.00;1.33;;;17.10;72.90;;;;;;5066076;28;20114;-70
2022/05/27 06:49:26;;;;;;;3.47;1.10;;;17.10;72.80;;;;;;5063321;28;20040;-69
2022/05/27 06:51:53;;;;;;;4.28;1.00;;;17.10;72.70;;;;;;5064967;28;20097;-69
2022/05/27 06:54:21;;;;;;;2.75;1.20;;;17.20;72.70;;;;;;5068302;28;20482;-68
2022/05/27 06:56:52;;;;;;;2.25;1.30;;;17.10;72.70;;;;;;5068096;28;20405;-69
2022/05/27 06:59:20;;;;;;;2.67;1.35;;;17.10;72.70;;;;;;5077062;28;20507;-68
2022/05/27 07:01:48;;;;;;;7.10;2.00;;;17.10;72.70;;;;;;5074149;28;20051;-72
2022/05/27 07:04:17;;;;;;;4.30;1.30;;;17.20;72.70;;;;;;5066054;28;20539;-70
2022/05/27 07:06:46;;;;;;;5.10;1.37;;;17.20;72.70;;;;;;5061244;28;20033;-72
2022/05/27 07:09:16;;;;;;;2.97;1.30;;;17.20;72.70;;;;;;5064545;28;20653;-73
2022/05/27 07:11:46;;;;;;;4.83;1.80;;;17.20;72.70;;;;;;5066172;28;20044;-70
2022/05/27 07:14:14;;;;;;;;;;;17.20;72.80;;;;;;5067905;28;20614;-70
2022/05/27 07:16:42;;;;;;;6.22;1.63;;;17.20;72.80;;;;;;5070543;28;20050;-71
2022/05/27 07:19:10;;;;;;;4.13;1.60;;;17.20;72.80;;;;;;5071287;28;20036;-70
2022/05/27 07:21:41;;;;;;;3.63;1.55;;;17.20;72.80;;;;;;5070450;28;20123;-71
2022/05/27 07:24:09;;;;;;;4.30;1.63;;;17.30;72.90;;;;;;5079988;28;20057;-72
2022/05/27 07:26:38;;;;;;;3.88;1.33;;;17.30;72.80;;;;;;5072752;28;20526;-70
2022/05/27 07:29:05;;;;;;;4.00;1.45;;;17.30;72.80;;;;;;5072000;28;20119;-72
2022/05/27 07:31:34;;;;;;;4.82;1.77;;;17.30;72.70;;;;;;5077794;28;20043;-70
2022/05/27 07:34:01;;;;;;;3.88;1.30;;;17.30;72.70;;;;;;5072651;28;20581;-72
2022/05/27 07:36:28;;;;;;;1.92;0.98;;;17.30;72.70;;;;;;5069449;28;20573;-71
2022/05/27 07:38:55;;;;;;;4.45;1.30;;;17.40;72.70;;;;;;5069350;28;20050;-69
2022/05/27 07:41:23;;;;;;;4.82;1.63;;;17.40;72.80;;;;;;5067607;28;20414;-71
2022/05/27 07:43:51;;;;;;;3.70;1.35;;;17.50;72.70;;;;;;5071236;28;20087;-71
2022/05/27 07:46:19;;;;;;;3.13;1.52;;;17.50;72.70;;;;;;5069879;28;20538;-69
2022/05/27 07:48:48;;;;;;;1.55;0.90;;;17.60;72.60;;;;;;5066293;28;20040;-69
2022/05/27 07:51:15;;;;;;;3.90;1.30;;;17.60;72.50;;;;;;5076695;28;20041;-70
2022/05/27 07:53:42;;;;;;;4.13;1.60;;;17.60;72.40;;;;;;5068696;28;20036;-70
2022/05/27 07:56:11;;;;;;;3.88;1.30;;;17.70;72.50;;;;;;5067495;28;20115;-73
2022/05/27 07:58:38;;;;;;;4.97;1.17;;;17.70;72.70;;;;;;5067658;28;20558;-70
2022/05/27 08:01:06;;;;;;;2.58;1.13;;;17.70;72.80;;;;;;5071405;28;20040;-70
2022/05/27 08:03:33;;;;;;;2.22;1.00;;;17.60;73.00;;;;;;5072240;28;20213;-70
2022/05/27 08:06:02;;;;;;;2.20;1.02;;;17.70;73.30;;;;;;5071594;28;20070;-69
2022/05/27 08:08:30;;;;;;;3.80;1.40;;;17.60;73.70;;;;;;5075556;28;20052;-68
2022/05/27 08:10:58;;;;;;;3.45;1.02;;;17.50;74.10;;;;;;5068015;28;20488;-72
2022/05/27 08:13:25;;;;;;;3.40;1.20;;;17.50;74.60;;;;;;5065981;28;20114;-69
2022/05/27 08:15:53;;;;;;;4.03;1.20;;;17.50;74.80;;;;;;5067870;28;20040;-70
2022/05/27 08:18:20;;;;;;;2.40;0.82;;;17.50;75.10;;;;;;5066809;28;20045;-69
2022/05/27 08:20:48;;;;;;;2.72;1.08;;;17.50;75.40;;;;;;5072203;28;20047;-72
2022/05/27 08:23:16;;;;;;;4.55;1.35;;;17.40;75.60;;;;;;5065815;28;20121;-72
2022/05/27 08:25:44;;;;;;;2.45;1.38;;;17.50;76.10;;;;;;5066771;28;20055;-72
2022/05/27 08:28:11;;;;;;;4.05;1.30;;;17.50;76.60;;;;;;5081757;28;20590;-71
2022/05/27 08:30:40;;;;;;;2.40;1.05;;;17.50;76.60;;;;;;5068971;28;20047;-69
2022/05/27 08:33:07;;;;;;;3.28;1.05;;;17.50;76.80;;;;;;5069010;28;20051;-70
2022/05/27 08:38:33;;;;;;;2.38;1.00;;;17.60;77.70;;;;;;5069313;28;20040;-70
2022/05/27 08:41:25;;;;;;;4.47;1.45;;;17.60;77.70;;;;;;5054625;28;20462;-70
2022/05/27 08:44:16;;;;;;;2.95;0.85;;;17.70;77.80;;;;;;5065240;28;20055;-69
2022/05/27 08:46:54;;;;;;;4.25;1.13;;;17.60;78.00;;;;;;5070863;28;20578;-73
2022/05/27 08:49:26;;;;;;;1.52;0.73;;;17.70;78.10;;;;;;5066245;28;20084;-69
2022/05/27 08:52:00;;;;;;;4.30;1.15;;;17.80;78.30;;;;;;5049026;28;20203;-70
2022/05/27 08:54:34;;;;;;;4.63;0.82;;;17.80;78.40;;;;;;5065483;28;20137;-68
2022/05/27 08:59:53;;;;;;;3.42;1.17;;;17.90;78.50;;;;;;5069881;28;20037;-73
2022/05/27 09:02:37;;;;;;;3.03;1.10;;;17.90;77.90;;;;;;5065922;28;20132;-68
2022/05/27 09:05:15;;;;;;;3.85;1.40;;;17.80;77.90;;;;;;5070677;28;20045;-70
2022/05/27 09:07:48;;;;;;;2.97;1.10;;;17.80;77.70;;;;;;5064513;28;20055;-68
2022/05/27 09:10:19;;;;;;;2.47;1.17;;;17.80;77.60;;;;;;5072374;28;20100;-70
2022/05/27 09:13:03;;;;;;;4.03;1.15;;;17.70;77.60;;;;;;5066206;28;20550;-67
2022/05/27 09:15:36;;;;;;;3.92;1.00;;;17.70;77.60;;;;;;5071717;28;20090;-69
2022/05/27 09:18:14;;;;;;;2.92;1.10;;;17.70;77.60;;;;;;5067694;28;20133;-70
2022/05/27 09:20:50;;;;;;;4.75;1.40;;;17.70;77.60;;;;;;5071412;28;20105;-70
2022/05/27 09:23:50;;;;;;;2.67;1.35;;;17.60;77.40;;;;;;5077386;28;20043;-70
2022/05/27 09:26:26;;;;;;;2.55;0.90;;;17.60;77.40;;;;;;5070206;28;20048;-73
2022/05/27 09:29:00;;;;;;;2.53;1.17;;;17.50;77.30;;;;;;5065095;28;20040;-70
2022/05/27 09:31:44;;;;;;;4.40;1.67;;;17.60;77.40;;;;;;5069727;28;20044;-71
2022/05/27 09:34:12;;;;;;;5.13;2.00;;;17.60;77.80;;;;;;5067127;28;20090;-72
2022/05/27 09:36:43;;;;;;;3.70;1.52;;;17.60;78.40;;;;;;5067274;28;20071;-69
2022/05/27 09:39:13;;;;;;;3.72;1.25;;;17.60;78.60;;;;;;5069550;28;20036;-71
2022/05/27 09:41:47;;;;;;;5.72;1.15;;;17.60;79.10;;;;;;5074211;28;20086;-70
2022/05/27 09:44:24;;;;;;;2.42;1.02;;;17.60;79.80;;;;;;5064988;28;20083;-70
2022/05/27 09:46:51;;;;;;;3.22;1.10;;;17.60;79.80;;;;;;5071717;28;20398;-73
2022/05/27 09:49:18;;;;;;;3.92;1.40;;;17.60;79.80;;;;;;5072259;28;20209;-74
2022/05/27 09:51:45;;;;;;;2.85;1.40;;;17.70;79.80;;;;;;5069065;28;20496;-68
2022/05/27 09:54:37;;;;;;;2.55;1.15;;;17.70;79.60;;;;;;5071982;28;20576;-69
2022/05/27 09:57:17;;;;;;;3.00;0.90;;;17.80;79.60;;;;;;5066478;28;20052;-70
2022/05/27 09:59:47;;;;;;;2.92;1.00;;;17.90;79.80;;;;;;5070134;28;20060;-70
2022/05/27 10:02:17;;;;;;;;;;;17.90;79.30;;;;;;5065414;28;20445;-69
2022/05/27 10:04:55;;;;;;;3.92;0.70;;;18.00;78.50;;;;;;5065916;28;19921;-69
2022/05/27 10:07:30;;;;;;;2.38;1.05;;;18.00;78.30;;;;;;5067407;28;20500;-68
2022/05/27 10:09:58;;;;;;;3.97;1.20;;;18.00;77.70;;;;;;5066596;28;20060;-70
2022/05/27 10:12:32;;;;;;;3.17;1.00;;;18.00;77.40;;;;;;5073231;28;20116;-70
2022/05/27 10:15:00;;;;;;;3.95;1.30;;;18.00;77.30;;;;;;5069513;28;20118;-70
2022/05/27 10:17:31;;;;;;;4.45;2.17;;;18.00;77.30;;;;;;5072723;28;20416;-69
2022/05/27 10:20:17;;;;;;;5.28;1.48;;;18.10;77.40;;;;;;5069735;28;20094;-72
2022/05/27 10:22:58;;;;;;;5.97;1.10;;;18.10;77.40;;;;;;5069353;28;20037;-70
2022/05/27 10:25:32;;;;;;;3.58;0.88;;;18.10;77.10;;;;;;5068991;28;20049;-71
2022/05/27 10:28:01;;;;;;;1.58;0.70;;;18.10;76.90;;;;;;5065466;28;20423;-70
2022/05/27 10:30:31;;;;;;;2.92;0.68;;;18.20;76.60;;;;;;5067855;28;20396;-70
2022/05/27 10:33:13;;;;;;;;;;;18.20;76.10;;;;;;5072660;28;20040;-69
2022/05/27 10:35:40;;;;;;;2.15;0.80;;;18.30;76.10;;;;;;5072791;28;20019;-68
2022/05/27 10:38:23;;;;;;;2.17;0.60;;;18.30;75.10;;;;;;5073166;28;20067;-70
2022/05/27 10:40:57;;;;;;;2.60;0.50;;;18.40;75.40;;;;;;5068314;28;20032;-70
2022/05/27 10:43:38;;;;;;;1.27;0.50;;;18.40;75.10;;;;;;5071804;28;20584;-69
2022/05/27 10:46:07;;;;;;;4.90;0.80;;;18.50;74.90;;;;;;5074623;28;20110;-70
2022/05/27 10:48:52;;;;;;;2.38;0.85;;;18.50;74.70;;;;;;5075221;28;20473;-70
2022/05/27 10:51:32;;;;;;;2.85;0.73;;;18.40;74.50;;;;;;5071820;28;20044;-75
2022/05/27 10:54:11;;;;;;;2.28;0.85;;;18.40;74.20;;;;;;5072210;28;20064;-73
2022/05/27 11:02:03;;;;;;;2.92;1.05;;;18.40;74.20;;;;;;5074167;28;20036;-71
2022/05/27 11:02:47;;;;;;;1.52;0.45;;;18.30;74.80;;;;;;5076069;28;23612;-72
2022/05/27 11:05:36;;;;;;;2.47;0.70;;;18.20;75.20;;;;;;5069931;28;20495;-71
2022/05/27 11:08:17;;;;;;;1.88;0.93;;;18.30;75.20;;;;;;5073285;28;20036;-71
2022/05/27 11:10:51;;;;;;;2.85;1.13;;;18.40;75.10;;;;;;5075728;28;20037;-69
2022/05/27 11:16:29;;;;;;;0.82;0.40;;;18.30;75.30;;;;;;5073596;28;20108;-72
2022/05/27 11:19:08;;;;;;;0.82;0.30;;;18.30;74.60;;;;;;5077320;28;20071;-71
2022/05/27 11:21:49;;;;;;;0.40;0.17;;;18.20;74.60;;;;;;5073756;28;20040;-69
2022/05/27 11:24:30;;;;;;;0.43;0.15;;;18.20;73.80;;;;;;5066557;28;20570;-71
2022/05/27 11:27:05;;;;;;;2.80;0.20;;;18.10;73.50;;;;;;5069329;28;20047;-70
2022/05/27 11:29:53;;;;;;;0.25;0.15;;;18.00;73.50;;;;;;5069461;28;20530;-70
2022/05/27 11:32:46;;;;;;;0.40;0.10;;;17.90;73.80;;;;;;5067859;28;20119;-71
2022/05/27 11:35:22;;;;;;;0.82;0.28;;;17.90;74.30;;;;;;5067513;28;20483;-70
2022/05/27 11:38:01;;;;;;;0.32;0.10;;;18.00;74.70;;;;;;5068160;28;20133;-70
2022/05/27 11:40:43;;;;;;;0.35;0.10;;;18.10;75.30;;;;;;5072720;28;20461;-69
2022/05/27 11:43:44;;;;;;;0.95;0.30;;;18.20;75.70;;;;;;5071180;28;20580;-69
2022/05/27 11:46:43;;;;;;;0.65;0.30;;;18.30;75.70;;;;;;5070135;28;20144;-69
2022/05/27 11:49:29;;;;;;;0.30;0.15;;;18.30;75.30;;;;;;5060640;28;20048;-69
2022/05/27 11:52:15;;;;;;;0.20;0.20;;;18.40;75.10;;;;;;5067503;28;20042;-71
2022/05/27 11:55:02;;;;;;;1.50;0.20;;;18.40;75.00;;;;;;5068440;28;20385;-71
2022/05/27 11:57:39;;;;;;;0.47;0.30;;;18.50;75.40;;;;;;5062804;28;20403;-70
2022/05/27 12:00:11;;;;;;;0.40;0.20;;;18.50;75.70;;;;;;5067021;28;20036;-70
2022/05/27 12:02:51;;;;;;;0.65;0.30;;;18.60;75.50;;;;;;5068082;28;20716;-70
2022/05/27 12:05:23;;;;;;;1.15;0.45;;;18.60;75.70;;;;;;5063246;28;20083;-71
2022/05/27 12:07:57;;;;;;;1.60;0.43;;;18.60;75.70;;;;;;5070572;28;20048;-72
2022/05/27 12:10:27;;;;;;;1.10;0.32;;;18.50;75.70;;;;;;5067793;28;20044;-68
2022/05/27 12:12:59;;;;;;;1.08;0.50;;;18.50;75.80;;;;;;5075833;28;20054;-71
2022/05/27 12:15:33;;;;;;;4.90;0.60;;;18.50;75.90;;;;;;5067222;28;20131;-70
2022/05/27 12:18:02;;;;;;;1.48;0.60;;;18.50;75.80;;;;;;5070030;28;20047;-72
2022/05/27 12:20:33;;;;;;;1.60;0.70;;;18.50;75.70;;;;;;5072727;28;20044;-71
2022/05/27 12:23:06;;;;;;;1.98;0.60;;;18.60;74.50;;;;;;5066703;28;20388;-68
2022/05/27 12:25:38;;;;;;;1.88;0.88;;;18.60;74.20;;;;;;5069453;28;20527;-70
2022/05/27 12:28:07;;;;;;;1.45;0.80;;;18.60;73.60;;;;;;5069526;28;20076;-68
2022/05/27 12:30:40;;;;;;;3.20;1.10;;;18.60;72.70;;;;;;5066728;28;20068;-68
2022/05/27 12:33:11;;;;;;;1.80;0.80;;;18.60;72.20;;;;;;5067160;28;20045;-71
2022/05/27 12:35:57;;;;;;;1.15;0.70;;;18.60;71.80;;;;;;5071165;28;20127;-70
2022/05/27 12:38:26;;;;;;;2.47;0.90;;;18.60;71.20;;;;;;5069910;28;20062;-69
2022/05/27 12:40:56;;;;;;;4.05;1.40;;;18.70;71.00;;;;;;5070296;28;20051;-71
2022/05/27 12:43:29;;;;;;;3.63;1.27;;;18.80;70.80;;;;;;5071722;28;20049;-73
2022/05/27 12:46:15;;;;;;;2.13;0.70;;;18.80;70.70;;;;;;5072762;28;20080;-67
2022/05/27 12:48:43;;;;;;;1.88;0.80;;;18.90;70.30;;;;;;5074088;28;20517;-70
2022/05/27 12:51:40;;;;;;;2.25;0.68;;;19.00;70.30;;;;;;5068937;28;20105;-69
2022/05/27 12:54:07;;;;;;;2.00;0.82;;;19.10;70.30;;;;;;5070086;28;20060;-69
2022/05/27 13:02:51;;;;;;;1.95;0.70;;;19.20;69.90;;;;;;5073851;28;20047;-70
2022/05/27 13:05:21;;;;;;;2.75;0.80;;;19.20;68.90;;;;;;5079646;28;20044;-70
2022/05/27 13:07:52;;;;;;;1.65;0.52;;;19.20;69.10;;;;;;5077733;28;20044;-70
2022/05/27 13:10:51;;;;;;;2.15;0.75;;;19.30;69.30;;;;;;5078331;28;20040;-71
2022/05/27 13:13:28;;;;;;;2.40;0.90;;;19.50;68.70;;;;;;5076342;28;20048;-68
2022/05/27 13:16:09;;;;;;;2.15;0.85;;;19.60;67.50;;;;;;5075859;28;20048;-69
2022/05/27 13:18:40;;;;;;;1.20;0.70;;;19.60;65.10;;;;;;5072887;28;20569;-68
2022/05/27 13:21:13;;;;;;;2.95;1.65;;;19.70;64.70;;;;;;5076957;28;20097;-68
2022/05/27 13:24:00;;;;;;;1.98;0.77;;;19.70;64.60;;;;;;5078413;28;20483;-67
2022/05/27 13:26:40;;;;;;;1.10;0.93;;;19.90;64.00;;;;;;5077350;28;20056;-71
2022/05/27 13:29:25;;;;;;;1.15;0.70;;;20.10;63.60;;;;;;5077006;28;20100;-71
2022/05/27 13:31:57;;;;;;;2.15;0.90;;;20.30;62.50;;;;;;5075387;28;20052;-70
2022/05/27 13:34:37;;;;;;;1.88;0.85;;;20.40;62.10;;;;;;5073542;28;20056;-69
2022/05/27 13:37:07;;;;;;;2.95;0.80;;;20.30;59.70;;;;;;5077676;28;20068;-72
2022/05/27 13:39:40;;;;;;;2.55;1.10;;;20.30;59.70;;;;;;5075152;28;20048;-68
2022/05/27 13:42:11;;;;;;;2.42;1.20;;;20.20;58.40;;;;;;5075696;28;20064;-70
2022/05/27 13:44:41;;;;;;;2.40;1.20;;;20.30;58.60;;;;;;5075954;28;20590;-74
2022/05/27 13:47:15;;;;;;;3.60;1.20;;;20.30;58.30;;;;;;5075146;28;20074;-69
2022/05/27 13:49:44;;;;;;;2.00;1.02;;;20.30;57.80;;;;;;5070697;28;20049;-68